A Kung Wan, Hong Kong

60.3°F / 15.7°C
Scattered Clouds
Humidity: 99%
Dew Point: 60°F / 16°C
Wind: South at 12 mph / 19.3 km/h
Wind Gust: 22.0 mph / 35.4 km/h
Pressure: 29.95 in / 1014 hPa (Falling)
Visibility: 6.2 miles / 10.0 kilometers
Clouds: (FEW) : 1100 ft / 335 m
Scattered Clouds (SCT) : 2500 ft / 762 m
Yesterday's Maximum: 64.2°F / 17.9°C
Yesterday's Minimum: 61.2°F / 16.2°C
UV: 0 out of 16
Sunrise:6:52 AM HKT
Sunset:6:21 PM HKT
Moon Rise:4:56 PM HKT
Moon Set:5:32 AM HKT
Moon Phase Waxing Gibbous
NOAA Weather Radio
No local feed.
METAR VHHH 171930Z 09019KT 9999 FEW011 SCT025 18/16 Q1014 NOSIG
As of: 3:33 AM HKT on February 18, 2019
Observed at: Metro City, Hong Kong, Hong Kong

View Station's History

No Yes

Local Satellite

Current Satellite Forecast
Region Default Local
No Yes

View Full Screen WunderMap

Forecast

Current Satellite Forecast
Sunday
. High: 64° F. / 17° C.

. High: 61° F. / 16° C.

Features

Weather Apps

WunderRadio

Weather Underground Apps
Check out our wide variety of mobile and setup applications.

Weather Underground Applications

Top of Page

© Copyright 2019
The Weather Company, LLC